• Join FlightAware (Why Join?)
  • Login
  • US Flag 
11:54PM EDT


 

Airport Tracker/Info


-or-


 

Live Flight TrackerFlight Track Log ✈ N142S ✈ 24-Feb-2014 ✈ KDAN - KORF

Flight Track Log - Related Links

Times and Time Zones

All times are in EST time to prevent confusion due to time zone crossing. See the N142S flight status page for this flight to view local times or setup timezone preferences in your user account.

Time Position Orientation Groundspeed Altitude Reporting Facility
EST Latitude Longitude Course Direction KTS MPH feet Rate Location/Type
01:54PM 36.6186 -79.2200 78° East 179 206 4,700  Level Washington Center
01:55PM 36.6286 -79.1611 78° East 179 206 5,000 120 Climbing Washington Center
01:56PM 36.6328 -79.0939 86° East 184 212 5,000 240 Level Washington Center
01:57PM 36.6389 -79.0269 83° East 184 212 5,500 600 Climbing Washington Center
01:58PM 36.6383 -78.9700 91° East 179 206 6,200 600 Climbing Washington Center
01:59PM 36.6464 -78.9056 81° East 174 200 6,800 360 Climbing Washington Center
02:00PM 36.6525 -78.8386 83° East 179 206 7,000 60 Climbing Washington Center
02:01PM 36.6606 -78.7689 82° East 190 219 7,000  Level Washington Center
02:02PM 36.6711 -78.6814 81° East 210 242 7,000  Level Washington Center
02:03PM 36.6750 -78.6167 86° East 217 250 7,000  Level Washington Center
02:04PM 36.6853 -78.5419 80° East 217 250 7,000  Level Washington Center
02:05PM 36.6936 -78.4569 83° East 217 250 7,000  Level Washington Center
02:06PM 36.6994 -78.3819 84° East 217 250 7,000  Level Washington Center
02:07PM 36.7094 -78.3097 80° East 217 250 7,000  Level Washington Center
02:08PM 36.7175 -78.2322 83° East 217 250 7,000  Level Washington Center
02:09PM 36.7233 -78.1547 85° East 217 250 7,000  Level Washington Center
02:10PM 36.7292 -78.0797 84° East 217 250 7,000  Level Washington Center
02:11PM 36.7389 -78.0022 81° East 217 250 7,000  Level Washington Center
02:12PM 36.7447 -77.9272 84° East 217 250 7,000  Level Washington Center
02:13PM 36.7503 -77.8497 85° East 222 255 7,000  Level Washington Center
02:14PM 36.7581 -77.7722 83° East 222 255 7,000  Level Washington Center
02:15PM 36.7636 -77.6944 85° East 217 250 7,000  Level Washington Center
02:16PM 36.7733 -77.6169 81° East 217 250 7,000  Level Washington Center
02:17PM 36.7786 -77.5419 85° East 217 250 7,000  Level Washington Center
02:18PM 36.7861 -77.4722 82° East 217 250 7,000 -60 Level Washington Center
02:19PM 36.7911 -77.4047 85° East 221 254 6,900  Descending Washington Center
02:19PM 36.7914 -77.3969 87° East 217 250 7,000  Climbing Washington Center
02:20PM 36.7961 -77.3506 83° East 222 255 6,900  Descending Washington Center
02:20PM 36.7986 -77.3219 84° East 217 250 7,000  Climbing Washington Center
02:21PM 36.8017 -77.2675 86° East 223 257 6,900  Descending Washington Center
02:21PM 36.8061 -77.2444 76° East 217 250 7,000  Climbing Washington Center
02:22PM 36.8111 -77.1875 84° East 224 258 6,900  Descending Washington Center
02:22PM 36.8114 -77.1667 89° East 217 250 7,000  Climbing Washington Center
02:23PM 36.8183 -77.1097 81° East 224 258 6,900  Descending Washington Center
02:23PM 36.8186 -77.0917 89° East 217 250 7,000 -240 Climbing Washington Center
02:24PM 36.7942 -77.0367 119° Southeast 228 262 6,700 -240 Descending Washington Center
02:24PM 36.7903 -77.0211 107° East 217 250 6,800 -420 Climbing Washington Center
02:25PM 36.7658 -76.9556 115° Southeast 235 270 6,300 -540 Descending Washington Center
02:25PM 36.7639 -76.9453 103° East 228 262 6,300 -480 Level Washington Center
02:26PM 36.7414 -76.8956 119° Southeast 237 273 5,900 -420 Descending Washington Center
02:26PM 36.7356 -76.8747 109° East 233 268 5,900 -540 Level Washington Center
02:27PM 36.7278 -76.8047 98° East 208 239 5,300 -540 Descending Washington Center
02:27PM 36.7258 -76.8022 134° Southeast 228 262 5,400 -540 Climbing Washington Center
02:28PM 36.7203 -76.7294 95° East 209 241 4,800 -540 Descending Washington Center
02:28PM 36.7203 -76.7294 95° East 215 247 4,900 -540 Climbing Washington Center
02:29PM 36.7125 -76.6567 98° East 209 241 4,300 -600 Descending Washington Center
02:30PM 36.7069 -76.5919 96° East 208 239 3,900 -240 Descending Washington Center
02:31PM 36.6989 -76.5297 99° East 197 227 3,900 -300 Level Washington Center
02:32PM 36.7058 -76.4597 83° East 202 232 3,400 -480 Descending Washington Center
02:33PM 36.7417 -76.4108 48° Northeast 198 228 3,000 -420 Descending Washington Center
02:34PM 36.7817 -76.3492 51° Northeast 199 229 2,500 -300 Descending Washington Center
02:35PM 36.8050 -76.2975 61° Northeast 172 198 2,400 -600 Descending Washington Center
02:36PM 36.8342 -76.2642 42° Northeast 132 152 1,400 -900 Descending Washington Center
02:37PM 36.8636 -76.2358 38° Northeast 123 142 700 -720 Descending Washington Center